Time;durP1;ratioP1;P1;durP2;ratioP2;P2;SDS_P1;SDS_P2;PMS_P1;PMS_P2;Temp;Humidity;BMP_temperature;BMP_pressure;BME280_temperature;BME280_humidity;BME280_pressure;Samples;Min_cycle;Max_cycle;Signal;HPM_P1;HPM_P2
2022/01/01 00:00:28;;;;;;;;;16.33;16.33;;;;;;;;5040308;28;9135;-78
2022/01/01 00:02:56;;;;;;;;;21.67;20.67;;;;;;;;5044445;28;9106;-77
2022/01/01 00:05:24;;;;;;;;;19.67;19.00;;;;;;;;5038453;28;9104;-79
2022/01/01 00:07:52;;;;;;;;;17.67;17.67;;;;;;;;5044509;28;9139;-82
2022/01/01 00:10:21;;;;;;;;;21.67;19.33;;;;;;;;5044668;28;9198;-81
2022/01/01 00:12:48;;;;;;;;;20.00;17.00;;;;;;;;5044064;28;9036;-77
2022/01/01 00:15:16;;;;;;;;;20.67;19.33;;;;;;;;5039608;28;9106;-82
2022/01/01 00:17:44;;;;;;;;;17.00;17.00;;;;;;;;5043753;28;9149;-85
2022/01/01 00:20:13;;;;;;;;;15.00;15.00;;;;;;;;5045163;28;9216;-83
2022/01/01 00:22:41;;;;;;;;;18.00;16.00;;;;;;;;5043111;28;9121;-79
2022/01/01 00:25:09;;;;;;;;;21.67;20.67;;;;;;;;5044298;28;9044;-80
2022/01/01 00:27:38;;;;;;;;;22.33;17.00;;;;;;;;5044229;28;9179;-75
2022/01/01 00:30:07;;;;;;;;;17.67;17.67;;;;;;;;5030571;28;9189;-77
2022/01/01 00:32:34;;;;;;;;;21.67;19.67;;;;;;;;5042419;28;9200;-78
2022/01/01 00:35:02;;;;;;;;;15.67;13.00;;;;;;;;5042837;28;9118;-76
2022/01/01 00:37:29;;;;;;;;;24.00;22.00;;;;;;;;5040317;28;9037;-78
2022/01/01 00:39:56;;;;;;;;;15.33;14.33;;;;;;;;5043097;28;9128;-86
2022/01/01 00:42:24;;;;;;;;;24.67;19.00;;;;;;;;5043484;28;9223;-75
2022/01/01 00:44:52;;;;;;;;;28.33;24.00;;;;;;;;5041774;28;8954;-78
2022/01/01 00:47:19;;;;;;;;;19.33;17.00;;;;;;;;5043948;28;9208;-75
2022/01/01 00:49:47;;;;;;;;;18.33;18.00;;;;;;;;5043721;28;9098;-77
2022/01/01 00:52:14;;;;;;;;;18.67;16.33;;;;;;;;5039581;28;9062;-78
2022/01/01 00:54:41;;;;;;;;;26.33;20.67;;;;;;;;5044191;28;9122;-82
2022/01/01 00:57:09;;;;;;;;;19.33;19.33;;;;;;;;5043153;28;9120;-84
2022/01/01 00:59:36;;;;;;;;;26.67;23.33;;;;;;;;5043773;28;9977;-75
2022/01/01 01:02:05;;;;;;;;;26.00;24.33;;;;;;;;5042139;28;9174;-74
2022/01/01 01:04:33;;;;;;;;;27.00;25.33;;;;;;;;5043851;28;9205;-77
2022/01/01 01:07:00;;;;;;;;;24.67;23.00;;;;;;;;5043134;28;9331;-81
2022/01/01 01:09:28;;;;;;;;;26.00;22.33;;;;;;;;5041596;28;9355;-78
2022/01/01 01:11:56;;;;;;;;;35.00;26.33;;;;;;;;5043882;28;9213;-75
2022/01/01 01:14:26;;;;;;;;;19.33;18.00;;;;;;;;5042497;28;9338;-81
2022/01/01 01:16:54;;;;;;;;;29.00;26.33;;;;;;;;5044647;28;10108;-84
2022/01/01 01:19:23;;;;;;;;;22.67;20.00;;;;;;;;5044129;28;9515;-85
2022/01/01 01:21:51;;;;;;;;;29.00;24.67;;;;;;;;5043974;28;9337;-82
2022/01/01 01:24:23;;;;;;;;;26.00;26.00;;;;;;;;5043746;28;9504;-82
2022/01/01 01:26:51;;;;;;;;;28.00;22.00;;;;;;;;5047344;28;9415;-81
2022/01/01 01:29:19;;;;;;;;;27.67;22.00;;;;;;;;5035181;28;9317;-79
2022/01/01 01:31:46;;;;;;;;;27.00;23.67;;;;;;;;5037904;28;9234;-79
2022/01/01 01:34:14;;;;;;;;;27.00;24.67;;;;;;;;5043404;28;9286;-75
2022/01/01 01:36:42;;;;;;;;;18.67;18.67;;;;;;;;5038857;28;9451;-75
2022/01/01 01:39:10;;;;;;;;;29.00;28.00;;;;;;;;5043940;28;9269;-74
2022/01/01 01:41:37;;;;;;;;;16.33;14.67;;;;;;;;5042401;28;9374;-79
2022/01/01 01:44:24;;;;;;;;;24.33;21.33;;;;;;;;5034838;28;9405;-81
2022/01/01 01:46:51;;;;;;;;;22.50;22.50;;;;;;;;5033980;28;9340;-79
2022/01/01 01:49:18;;;;;;;;;28.67;22.00;;;;;;;;5046029;28;10094;-78
2022/01/01 01:51:47;;;;;;;;;24.50;23.00;;;;;;;;5041464;28;10369;-75
2022/01/01 01:54:16;;;;;;;;;27.00;23.33;;;;;;;;5043134;28;9519;-82
2022/01/01 01:56:45;;;;;;;;;23.50;20.25;;;;;;;;5047672;28;9417;-77
2022/01/01 01:59:13;;;;;;;;;25.50;23.75;;;;;;;;5038426;28;9405;-77
2022/01/01 02:01:40;;;;;;;;;36.25;28.00;;;;;;;;5035672;28;9420;-84
2022/01/01 02:04:08;;;;;;;;;30.25;30.25;;;;;;;;5046667;28;9557;-81
2022/01/01 02:06:36;;;;;;;;;23.75;20.25;;;;;;;;5045709;28;9743;-78
2022/01/01 02:09:04;;;;;;;;;38.25;30.25;;;;;;;;5047302;28;9621;-80
2022/01/01 02:11:32;;;;;;;;;39.00;31.00;;;;;;;;5045799;28;9690;-85
2022/01/01 02:14:09;;;;;;;;;37.25;35.75;;;;;;;;5046737;28;9813;-74
2022/01/01 02:19:23;;;;;;;;;37.25;30.75;;;;;;;;5039769;28;9757;-84
2022/01/01 02:21:53;;;;;;;;;36.75;32.75;;;;;;;;5033681;28;9777;-80
2022/01/01 02:24:21;;;;;;;;;35.50;32.25;;;;;;;;5046615;28;9989;-82
2022/01/01 02:26:48;;;;;;;;;41.50;31.75;;;;;;;;5049480;28;10014;-83
2022/01/01 02:29:16;;;;;;;;;40.75;38.00;;;;;;;;5045424;28;9819;-78
2022/01/01 02:31:43;;;;;;;;;37.00;31.50;;;;;;;;5046440;28;9812;-77
2022/01/01 02:34:12;;;;;;;;;42.50;35.75;;;;;;;;5044926;28;9700;-76
2022/01/01 02:36:41;;;;;;;;;39.00;36.00;;;;;;;;5036949;28;9981;-78
2022/01/01 02:39:21;;;;;;;;;43.25;35.50;;;;;;;;5046921;28;9883;-82
2022/01/01 02:41:50;;;;;;;;;48.75;41.50;;;;;;;;5045337;28;9904;-74
2022/01/01 02:44:18;;;;;;;;;31.00;30.00;;;;;;;;5043087;28;10064;-77
2022/01/01 02:46:45;;;;;;;;;41.75;36.25;;;;;;;;5045704;28;9813;-74
2022/01/01 02:49:12;;;;;;;;;42.00;35.25;;;;;;;;5046213;28;11402;-77
2022/01/01 02:51:39;;;;;;;;;45.50;37.75;;;;;;;;5044812;28;9968;-85
2022/01/01 02:54:06;;;;;;;;;46.25;38.25;;;;;;;;5029778;28;9998;-84
2022/01/01 02:56:35;;;;;;;;;36.00;34.25;;;;;;;;5044222;28;9893;-74
2022/01/01 02:59:02;;;;;;;;;53.00;39.50;;;;;;;;5033483;28;9907;-78
2022/01/01 03:01:30;;;;;;;;;40.25;33.25;;;;;;;;5037093;28;9854;-78
2022/01/01 03:03:57;;;;;;;;;42.25;37.75;;;;;;;;5044769;28;9805;-77
2022/01/01 03:06:27;;;;;;;;;35.25;32.00;;;;;;;;5045961;28;9928;-79
2022/01/01 03:08:55;;;;;;;;;49.50;38.25;;;;;;;;5045628;28;9978;-84
2022/01/01 03:11:23;;;;;;;;;42.00;36.00;;;;;;;;5045023;28;9930;-86
2022/01/01 03:13:52;;;;;;;;;37.00;33.50;;;;;;;;5037965;28;9872;-79
2022/01/01 03:16:19;;;;;;;;;39.25;36.75;;;;;;;;5044568;28;9902;-74
2022/01/01 03:18:47;;;;;;;;;47.25;38.00;;;;;;;;5046199;28;9918;-75
2022/01/01 03:21:14;;;;;;;;;36.25;33.00;;;;;;;;5044718;28;9755;-74
2022/01/01 03:23:41;;;;;;;;;35.25;33.50;;;;;;;;5045349;28;9730;-77
2022/01/01 03:26:09;;;;;;;;;37.25;36.25;;;;;;;;5045168;28;9579;-84
2022/01/01 03:28:36;;;;;;;;;38.00;32.50;;;;;;;;5042896;28;9820;-82
2022/01/01 03:31:06;;;;;;;;;36.75;31.50;;;;;;;;5044794;28;9544;-78
2022/01/01 03:33:33;;;;;;;;;35.25;32.00;;;;;;;;5041773;28;10570;-85
2022/01/01 03:36:00;;;;;;;;;35.75;31.75;;;;;;;;5045031;28;9777;-82
2022/01/01 03:38:29;;;;;;;;;27.75;25.75;;;;;;;;5036643;28;9771;-79
2022/01/01 03:40:56;;;;;;;;;42.00;35.00;;;;;;;;5045309;28;9768;-78
2022/01/01 03:43:23;;;;;;;;;38.75;31.50;;;;;;;;5042916;28;9737;-77
2022/01/01 03:45:51;;;;;;;;;30.75;27.00;;;;;;;;5044707;28;9742;-78
2022/01/01 03:48:19;;;;;;;;;29.00;27.00;;;;;;;;5045846;28;9628;-85
2022/01/01 03:50:46;;;;;;;;;39.00;36.00;;;;;;;;5036184;28;9797;-77
2022/01/01 03:53:14;;;;;;;;;29.00;25.25;;;;;;;;5039022;28;9732;-81
2022/01/01 03:55:41;;;;;;;;;32.75;31.50;;;;;;;;5039429;28;9723;-75
2022/01/01 03:58:08;;;;;;;;;37.25;33.00;;;;;;;;5045314;28;9969;-77
2022/01/01 04:00:36;;;;;;;;;32.25;31.50;;;;;;;;5043080;28;9834;-74
2022/01/01 04:03:07;;;;;;;;;31.00;27.25;;;;;;;;5041239;28;9788;-75
2022/01/01 04:05:37;;;;;;;;;26.25;20.75;;;;;;;;5039656;28;9815;-86
2022/01/01 04:08:04;;;;;;;;;25.25;25.25;;;;;;;;5043170;28;9760;-78
2022/01/01 04:10:32;;;;;;;;;31.25;28.25;;;;;;;;5044846;28;9660;-78
2022/01/01 04:12:59;;;;;;;;;31.75;24.50;;;;;;;;5043708;28;9627;-85
2022/01/01 04:15:27;;;;;;;;;29.50;26.50;;;;;;;;5028779;28;9950;-74
2022/01/01 04:17:58;;;;;;;;;31.00;27.00;;;;;;;;5034655;28;9713;-79
2022/01/01 04:20:26;;;;;;;;;30.50;24.50;;;;;;;;5043353;28;9818;-75
2022/01/01 04:22:57;;;;;;;;;33.50;26.75;;;;;;;;5044482;28;10485;-75
2022/01/01 04:25:25;;;;;;;;;33.00;31.00;;;;;;;;5043372;28;9846;-82
2022/01/01 04:27:55;;;;;;;;;34.00;32.00;;;;;;;;5044629;28;9863;-83
2022/01/01 04:30:25;;;;;;;;;34.50;31.25;;;;;;;;5032757;28;9714;-77
2022/01/01 04:32:52;;;;;;;;;28.25;24.25;;;;;;;;5044853;28;9845;-76
2022/01/01 04:35:19;;;;;;;;;26.50;23.00;;;;;;;;5043167;28;9644;-75
2022/01/01 04:37:46;;;;;;;;;24.25;18.75;;;;;;;;5044469;28;9815;-82
2022/01/01 04:40:15;;;;;;;;;24.00;24.00;;;;;;;;5044132;28;10516;-85
2022/01/01 04:42:42;;;;;;;;;30.00;29.50;;;;;;;;5043176;28;9927;-76
2022/01/01 04:45:11;;;;;;;;;32.75;29.00;;;;;;;;5043722;28;9975;-81
2022/01/01 04:47:38;;;;;;;;;30.25;30.25;;;;;;;;5034180;28;9909;-84
2022/01/01 04:50:06;;;;;;;;;31.25;29.50;;;;;;;;5043559;28;10107;-80
2022/01/01 04:52:34;;;;;;;;;27.00;21.75;;;;;;;;5040095;28;9932;-82
2022/01/01 04:55:01;;;;;;;;;24.75;24.75;;;;;;;;5044220;28;10612;-75
2022/01/01 04:57:30;;;;;;;;;13.00;12.75;;;;;;;;5043110;28;9721;-75
2022/01/01 04:59:58;;;;;;;;;19.75;19.75;;;;;;;;5034112;28;9892;-81
2022/01/01 05:02:26;;;;;;;;;28.00;19.75;;;;;;;;5039007;28;9667;-75
2022/01/01 05:04:54;;;;;;;;;21.75;15.50;;;;;;;;5041515;28;9910;-82
2022/01/01 05:07:22;;;;;;;;;21.75;19.25;;;;;;;;5043512;28;9945;-75
2022/01/01 05:09:49;;;;;;;;;19.00;17.25;;;;;;;;5038291;28;10845;-76
2022/01/01 05:12:16;;;;;;;;;25.25;23.50;;;;;;;;5037270;28;10074;-79
2022/01/01 05:14:45;;;;;;;;;31.00;25.25;;;;;;;;5042248;28;10099;-79
2022/01/01 05:17:14;;;;;;;;;28.75;25.00;;;;;;;;5042870;28;10126;-81
2022/01/01 05:19:41;;;;;;;;;24.00;20.75;;;;;;;;5044071;28;10142;-82
2022/01/01 05:22:08;;;;;;;;;24.00;20.50;;;;;;;;5042543;28;9933;-81
2022/01/01 05:24:36;;;;;;;;;30.75;27.75;;;;;;;;5043353;28;10686;-86
2022/01/01 05:27:03;;;;;;;;;28.00;25.50;;;;;;;;5042353;28;10063;-76
2022/01/01 05:29:31;;;;;;;;;28.75;28.00;;;;;;;;5042159;28;10043;-76
2022/01/01 05:31:59;;;;;;;;;29.75;26.50;;;;;;;;5042717;28;10089;-81
2022/01/01 05:34:27;;;;;;;;;25.00;21.75;;;;;;;;5043011;28;10284;-81
2022/01/01 05:36:54;;;;;;;;;27.50;20.00;;;;;;;;5037548;28;9956;-75
2022/01/01 05:39:21;;;;;;;;;23.25;23.25;;;;;;;;5042425;28;10122;-76
2022/01/01 05:41:54;;;;;;;;;21.75;21.00;;;;;;;;5043329;28;10046;-81
2022/01/01 05:44:21;;;;;;;;;25.00;21.25;;;;;;;;5036038;28;9909;-82
2022/01/01 05:46:50;;;;;;;;;20.75;19.00;;;;;;;;5043493;28;10067;-81
2022/01/01 05:49:19;;;;;;;;;17.75;17.75;;;;;;;;5043056;28;10199;-84
2022/01/01 05:51:46;;;;;;;;;24.75;21.75;;;;;;;;5040616;28;10327;-82
2022/01/01 05:54:13;;;;;;;;;23.50;18.75;;;;;;;;5036062;28;10319;-77
2022/01/01 05:56:41;;;;;;;;;22.00;21.00;;;;;;;;5029012;28;10342;-81
2022/01/01 05:59:08;;;;;;;;;22.25;19.75;;;;;;;;5035939;28;10320;-77
2022/01/01 06:01:35;;;;;;;;;24.50;24.00;;;;;;;;5041907;28;10227;-78
2022/01/01 06:04:03;;;;;;;;;24.50;21.00;;;;;;;;5043253;28;10287;-81
2022/01/01 06:06:31;;;;;;;;;27.00;19.25;;;;;;;;5042022;28;10286;-78
2022/01/01 06:08:58;;;;;;;;;24.25;22.50;;;;;;;;5043081;28;10987;-81
2022/01/01 06:11:26;;;;;;;;;22.50;20.25;;;;;;;;5043515;28;10062;-83
2022/01/01 06:13:53;;;;;;;;;22.25;22.25;;;;;;;;5037903;28;9994;-77
2022/01/01 06:16:20;;;;;;;;;19.50;17.75;;;;;;;;5042598;28;10032;-77
2022/01/01 06:18:47;;;;;;;;;22.00;18.75;;;;;;;;5042193;28;10266;-81
2022/01/01 06:21:15;;;;;;;;;14.25;13.50;;;;;;;;5035818;28;10127;-84
2022/01/01 06:23:43;;;;;;;;;29.25;21.75;;;;;;;;5041611;28;10022;-84
2022/01/01 06:26:11;;;;;;;;;19.50;19.50;;;;;;;;5041241;28;10125;-84
2022/01/01 06:28:38;;;;;;;;;19.50;17.00;;;;;;;;5038610;28;10352;-81
2022/01/01 06:31:06;;;;;;;;;15.75;15.75;;;;;;;;5032567;28;10901;-76
2022/01/01 06:33:33;;;;;;;;;18.00;17.25;;;;;;;;5043358;28;10063;-75
2022/01/01 06:36:00;;;;;;;;;20.75;17.75;;;;;;;;5056446;28;10589;-78
2022/01/01 06:38:27;;;;;;;;;22.00;18.00;;;;;;;;5043163;28;9971;-76
2022/01/01 06:40:56;;;;;;;;;18.75;18.75;;;;;;;;5045397;28;10161;-80
2022/01/01 06:43:24;;;;;;;;;16.75;16.75;;;;;;;;5044675;28;10111;-84
2022/01/01 06:45:51;;;;;;;;;20.25;19.00;;;;;;;;5045410;28;10219;-76
2022/01/01 06:48:18;;;;;;;;;18.00;18.00;;;;;;;;5045688;28;10223;-79
2022/01/01 06:50:46;;;;;;;;;23.50;22.25;;;;;;;;5046041;28;10006;-79
2022/01/01 06:53:13;;;;;;;;;55.75;42.25;;;;;;;;5034892;28;9895;-77
2022/01/01 06:55:42;;;;;;;;;21.50;21.50;;;;;;;;5046102;28;11005;-78
2022/01/01 06:58:11;;;;;;;;;26.75;22.50;;;;;;;;5044860;28;10040;-76
2022/01/01 07:00:39;;;;;;;;;24.75;22.50;;;;;;;;5042009;28;10009;-77
2022/01/01 07:03:07;;;;;;;;;46.25;39.00;;;;;;;;5044690;28;10409;-75
2022/01/01 07:05:35;;;;;;;;;17.75;17.75;;;;;;;;5045613;28;10698;-75
2022/01/01 07:08:02;;;;;;;;;30.75;26.25;;;;;;;;5045802;28;10269;-78
2022/01/01 07:10:30;;;;;;;;;28.50;25.50;;;;;;;;5043805;28;10254;-84
2022/01/01 07:12:57;;;;;;;;;28.00;24.50;;;;;;;;5045805;28;10273;-81
2022/01/01 07:15:26;;;;;;;;;58.50;49.75;;;;;;;;5044242;28;10147;-75
2022/01/01 07:17:54;;;;;;;;;46.00;40.50;;;;;;;;5045592;28;11141;-84
2022/01/01 07:20:22;;;;;;;;;43.50;38.50;;;;;;;;5043990;28;10730;-84
2022/01/01 07:22:49;;;;;;;;;23.25;23.25;;;;;;;;5036919;28;10764;-83
2022/01/01 07:25:16;;;;;;;;;25.00;25.00;;;;;;;;5040186;28;10070;-79
2022/01/01 07:27:44;;;;;;;;;38.50;34.50;;;;;;;;5041993;28;10144;-75
2022/01/01 07:30:12;;;;;;;;;28.25;25.00;;;;;;;;5043651;28;10475;-80
2022/01/01 07:32:42;;;;;;;;;30.75;26.75;;;;;;;;5045554;28;10277;-75
2022/01/01 07:35:12;;;;;;;;;19.75;19.75;;;;;;;;5042590;28;10158;-75
2022/01/01 07:37:40;;;;;;;;;29.00;29.00;;;;;;;;5040420;28;10239;-75
2022/01/01 07:40:11;;;;;;;;;35.50;32.25;;;;;;;;5045130;28;10294;-80
2022/01/01 07:42:38;;;;;;;;;25.50;25.50;;;;;;;;5043454;28;10287;-77
2022/01/01 07:45:07;;;;;;;;;24.25;20.50;;;;;;;;5043942;28;10354;-78
2022/01/01 07:47:34;;;;;;;;;35.50;33.00;;;;;;;;5044989;28;9849;-76
2022/01/01 07:50:04;;;;;;;;;20.00;20.00;;;;;;;;5044093;28;10330;-75
2022/01/01 07:52:33;;;;;;;;;32.00;32.00;;;;;;;;5036811;28;10955;-81
2022/01/01 07:55:00;;;;;;;;;24.00;18.50;;;;;;;;5043390;28;10138;-84
2022/01/01 07:57:27;;;;;;;;;35.25;31.50;;;;;;;;5044894;28;10304;-81
2022/01/01 07:59:55;;;;;;;;;24.50;24.50;;;;;;;;5043829;28;10434;-75
2022/01/01 08:02:22;;;;;;;;;24.00;21.25;;;;;;;;5040488;28;10242;-77
2022/01/01 08:04:49;;;;;;;;;22.25;20.75;;;;;;;;5045135;28;10239;-76
2022/01/01 08:07:18;;;;;;;;;7.50;7.50;;;;;;;;5043750;28;10121;-83
2022/01/01 08:09:45;;;;;;;;;25.75;23.50;;;;;;;;5044873;28;9966;-82
2022/01/01 08:12:13;;;;;;;;;27.00;24.75;;;;;;;;5043374;28;10262;-84
2022/01/01 08:14:40;;;;;;;;;60.00;50.00;;;;;;;;5044535;28;10479;-79
2022/01/01 08:17:08;;;;;;;;;33.75;29.25;;;;;;;;5045020;28;11702;-80
2022/01/01 08:19:35;;;;;;;;;23.75;22.25;;;;;;;;5044255;28;10387;-76
2022/01/01 08:22:04;;;;;;;;;59.25;47.75;;;;;;;;5043582;28;10250;-77
2022/01/01 08:24:33;;;;;;;;;31.75;31.75;;;;;;;;5035445;28;11211;-77
2022/01/01 08:27:01;;;;;;;;;61.50;49.50;;;;;;;;5044388;28;10600;-78
2022/01/01 08:29:29;;;;;;;;;49.75;43.25;;;;;;;;5042008;28;11438;-78
2022/01/01 08:31:57;;;;;;;;;47.50;38.00;;;;;;;;5043762;28;11033;-77
2022/01/01 08:34:24;;;;;;;;;29.75;28.50;;;;;;;;5042357;28;10884;-76
2022/01/01 08:36:52;;;;;;;;;27.25;27.25;;;;;;;;5043877;28;10539;-77
2022/01/01 08:39:20;;;;;;;;;50.25;43.75;;;;;;;;5044124;28;10548;-80
2022/01/01 08:41:49;;;;;;;;;28.25;27.25;;;;;;;;5043133;28;11570;-83
2022/01/01 08:44:17;;;;;;;;;27.50;27.50;;;;;;;;5035865;28;10622;-79
2022/01/01 08:46:45;;;;;;;;;25.50;24.25;;;;;;;;5036687;28;10662;-80
2022/01/01 08:49:12;;;;;;;;;17.75;17.75;;;;;;;;5044126;28;10430;-78
2022/01/01 08:51:42;;;;;;;;;20.75;20.75;;;;;;;;5036380;28;10416;-85
2022/01/01 08:54:11;;;;;;;;;23.25;23.25;;;;;;;;5036005;28;10339;-80
2022/01/01 08:56:39;;;;;;;;;26.00;26.00;;;;;;;;5043068;28;10503;-76
2022/01/01 08:59:08;;;;;;;;;25.75;25.25;;;;;;;;5034847;28;10530;-79
2022/01/01 09:01:35;;;;;;;;;30.50;28.00;;;;;;;;5039368;28;10301;-79
2022/01/01 09:04:03;;;;;;;;;19.00;14.50;;;;;;;;5043266;28;10711;-79
2022/01/01 09:06:31;;;;;;;;;21.00;17.25;;;;;;;;5043800;28;10078;-80
2022/01/01 09:08:58;;;;;;;;;17.75;16.75;;;;;;;;5042780;28;11495;-76
2022/01/01 09:11:26;;;;;;;;;15.50;13.25;;;;;;;;5044311;28;10735;-79
2022/01/01 09:13:53;;;;;;;;;18.50;18.00;;;;;;;;5042859;28;9978;-82
2022/01/01 09:16:29;;;;;;;;;17.00;16.50;;;;;;;;5041868;28;10076;-85
2022/01/01 09:18:56;;;;;;;;;23.00;23.00;;;;;;;;5041881;28;10123;-81
2022/01/01 09:21:24;;;;;;;;;19.25;16.50;;;;;;;;5033003;28;10865;-77
2022/01/01 09:23:51;;;;;;;;;13.50;13.50;;;;;;;;5043794;28;10040;-79
2022/01/01 09:26:19;;;;;;;;;15.25;15.25;;;;;;;;5042277;28;9836;-81
2022/01/01 09:28:47;;;;;;;;;19.25;17.00;;;;;;;;5043180;28;9888;-85
2022/01/01 09:31:14;;;;;;;;;16.00;14.25;;;;;;;;5042613;28;9725;-81
2022/01/01 09:33:43;;;;;;;;;15.00;15.00;;;;;;;;5029972;28;9840;-83
2022/01/01 09:36:14;;;;;;;;;12.75;12.75;;;;;;;;5043690;28;9722;-85
2022/01/01 09:38:42;;;;;;;;;12.50;11.75;;;;;;;;5043078;28;9656;-76
2022/01/01 09:41:10;;;;;;;;;12.00;9.50;;;;;;;;5043719;28;9488;-75
2022/01/01 09:43:38;;;;;;;;;15.25;15.25;;;;;;;;5029506;28;9598;-79
2022/01/01 09:46:05;;;;;;;;;12.50;12.50;;;;;;;;5035211;28;9647;-82
2022/01/01 09:48:33;;;;;;;;;10.50;10.50;;;;;;;;5043037;28;9731;-77
2022/01/01 09:51:03;;;;;;;;;12.50;12.50;;;;;;;;5042829;28;9424;-84
2022/01/01 09:53:32;;;;;;;;;12.67;10.00;;;;;;;;5035492;28;9564;-76
2022/01/01 09:56:01;;;;;;;;;12.33;9.67;;;;;;;;5042237;28;10396;-80
2022/01/01 09:58:30;;;;;;;;;9.00;9.00;;;;;;;;5042116;28;9408;-78
2022/01/01 10:00:57;;;;;;;;;8.00;8.00;;;;;;;;5040791;28;9055;-80
2022/01/01 10:03:28;;;;;;;;;11.33;8.67;;;;;;;;5043887;28;9120;-81
2022/01/01 10:06:02;;;;;;;;;9.50;8.75;;;;;;;;5042851;28;9050;-77
2022/01/01 10:08:29;;;;;;;;;8.75;4.25;;;;;;;;5046631;28;8900;-83
2022/01/01 10:10:57;;;;;;;;;9.00;5.50;;;;;;;;5047054;28;8873;-77
2022/01/01 10:13:29;;;;;;;;;9.75;8.25;;;;;;;;5045910;28;9038;-82
2022/01/01 10:15:57;;;;;;;;;9.00;7.00;;;;;;;;5045279;28;9008;-77
2022/01/01 10:18:27;;;;;;;;;7.50;7.50;;;;;;;;5044472;28;9777;-77
2022/01/01 10:20:59;;;;;;;;;5.00;4.75;;;;;;;;5046795;28;9032;-84
2022/01/01 10:23:30;;;;;;;;;12.00;10.50;;;;;;;;5046945;28;8853;-76
2022/01/01 10:29:13;;;;;;;;;27.33;27.00;;;;;;;;5045169;28;8853;-81
2022/01/01 10:31:55;;;;;;;;;10.00;6.50;;;;;;;;5044515;28;9076;-85
2022/01/01 10:34:24;;;;;;;;;18.00;11.25;;;;;;;;5036455;28;9004;-84
2022/01/01 10:36:52;;;;;;;;;6.50;6.50;;;;;;;;5046303;28;8869;-83
2022/01/01 10:39:22;;;;;;;;;10.25;7.50;;;;;;;;5040830;28;8867;-79
2022/01/01 10:41:52;;;;;;;;;15.75;15.25;;;;;;;;5043933;28;9004;-77
2022/01/01 10:44:25;;;;;;;;;6.50;6.50;;;;;;;;5045259;28;8984;-79
2022/01/01 10:46:53;;;;;;;;;8.00;8.00;;;;;;;;5045939;28;8889;-83
2022/01/01 10:49:33;;;;;;;;;6.00;6.00;;;;;;;;5045898;28;8962;-81
2022/01/01 10:52:15;;;;;;;;;3.50;3.50;;;;;;;;5041286;28;8859;-80
2022/01/01 10:54:51;;;;;;;;;7.00;5.25;;;;;;;;5039580;28;8857;-80
2022/01/01 10:57:26;;;;;;;;;6.25;3.75;;;;;;;;5044145;28;8905;-77
2022/01/01 11:00:06;;;;;;;;;3.00;3.00;;;;;;;;5044605;28;8886;-82
2022/01/01 11:02:34;;;;;;;;;3.00;3.00;;;;;;;;5045424;28;8810;-76
2022/01/01 11:05:03;;;;;;;;;3.00;3.00;;;;;;;;5046030;28;8886;-78
2022/01/01 11:07:31;;;;;;;;;3.00;3.00;;;;;;;;5044378;28;8852;-77
2022/01/01 11:10:01;;;;;;;;;4.50;3.00;;;;;;;;5044710;28;8891;-81
2022/01/01 11:12:30;;;;;;;;;4.00;4.00;;;;;;;;5045739;28;8877;-78
2022/01/01 11:14:59;;;;;;;;;2.33;2.33;;;;;;;;5044115;28;8864;-78
2022/01/01 11:17:28;;;;;;;;;2.00;2.00;;;;;;;;5045227;28;8996;-79
2022/01/01 11:19:56;;;;;;;;;4.75;4.00;;;;;;;;5045139;28;8915;-77
2022/01/01 11:22:24;;;;;;;;;1.50;1.50;;;;;;;;5044660;28;8897;-80
2022/01/01 11:24:51;;;;;;;;;2.00;2.00;;;;;;;;5038630;28;8978;-79
2022/01/01 11:27:21;;;;;;;;;4.50;4.50;;;;;;;;5042251;28;8955;-77
2022/01/01 11:29:51;;;;;;;;;5.25;5.25;;;;;;;;5036441;28;8885;-79
2022/01/01 11:32:21;;;;;;;;;4.00;4.00;;;;;;;;5025612;28;8829;-81
2022/01/01 11:34:50;;;;;;;;;4.00;3.00;;;;;;;;5044350;28;10128;-80
2022/01/01 11:37:20;;;;;;;;;3.00;3.00;;;;;;;;5039600;28;8861;-82
2022/01/01 11:39:47;;;;;;;;;3.00;3.00;;;;;;;;5044137;28;9694;-80
2022/01/01 11:42:16;;;;;;;;;3.50;3.00;;;;;;;;5044917;28;8880;-82
2022/01/01 11:44:52;;;;;;;;;4.00;4.00;;;;;;;;5036730;28;8996;-82
2022/01/01 11:47:20;;;;;;;;;2.75;2.75;;;;;;;;5044970;28;8870;-78
2022/01/01 11:49:48;;;;;;;;;2.75;2.75;;;;;;;;5045882;28;8880;-80
2022/01/01 11:52:36;;;;;;;;;3.25;3.25;;;;;;;;5035664;28;8867;-78
2022/01/01 11:55:06;;;;;;;;;2.25;2.25;;;;;;;;5044601;28;8873;-78
2022/01/01 11:57:33;;;;;;;;;3.75;3.75;;;;;;;;5043780;28;8911;-77
2022/01/01 12:00:10;;;;;;;;;6.25;6.25;;;;;;;;5031322;28;8883;-79
2022/01/01 12:02:49;;;;;;;;;2.00;2.00;;;;;;;;5043105;28;8818;-77
2022/01/01 12:05:31;;;;;;;;;2.75;2.75;;;;;;;;5043046;28;8935;-79
2022/01/01 12:08:01;;;;;;;;;3.25;3.25;;;;;;;;5043120;28;8853;-78
2022/01/01 12:10:35;;;;;;;;;4.50;3.00;;;;;;;;5044257;28;8899;-78
2022/01/01 12:13:04;;;;;;;;;3.75;3.75;;;;;;;;5044637;28;8869;-77
2022/01/01 12:15:50;;;;;;;;;3.00;3.00;;;;;;;;5043308;28;8900;-76
2022/01/01 12:18:20;;;;;;;;;3.50;2.25;;;;;;;;5043954;28;8877;-77
2022/01/01 12:20:50;;;;;;;;;4.00;3.25;;;;;;;;5041409;28;8992;-80
2022/01/01 12:23:19;;;;;;;;;1.00;1.00;;;;;;;;5034688;28;8866;-78
2022/01/01 12:25:48;;;;;;;;;3.00;3.00;;;;;;;;5043348;28;8873;-78
2022/01/01 12:28:18;;;;;;;;;6.75;6.75;;;;;;;;5036221;28;8873;-83
2022/01/01 12:30:48;;;;;;;;;4.40;4.00;;;;;;;;5043062;28;8797;-77
2022/01/01 12:33:25;;;;;;;;;7.00;7.00;;;;;;;;5034024;28;8877;-79
2022/01/01 12:35:53;;;;;;;;;4.00;4.00;;;;;;;;5043233;28;9639;-79
2022/01/01 12:38:23;;;;;;;;;5.40;3.60;;;;;;;;5039440;28;8969;-77
2022/01/01 12:41:01;;;;;;;;;3.00;3.00;;;;;;;;5043339;28;8865;-81
2022/01/01 12:43:31;;;;;;;;;4.25;4.25;;;;;;;;5042334;28;8877;-77
2022/01/01 12:46:01;;;;;;;;;5.50;4.00;;;;;;;;5040965;28;8862;-78
2022/01/01 12:48:32;;;;;;;;;1.00;0.00;;;;;;;;5041636;28;8871;-79
2022/01/01 12:51:02;;;;;;;;;5.00;3.50;;;;;;;;5036294;28;8968;-79
2022/01/01 12:53:30;;;;;;;;;4.75;4.75;;;;;;;;5037289;28;8907;-82
2022/01/01 12:56:03;;;;;;;;;2.75;2.75;;;;;;;;5043852;28;8853;-79
2022/01/01 12:58:35;;;;;;;;;4.00;4.00;;;;;;;;5041717;28;8866;-78
2022/01/01 13:01:12;;;;;;;;;3.50;3.50;;;;;;;;5041474;28;8940;-82
2022/01/01 13:03:40;;;;;;;;;3.00;3.00;;;;;;;;5042849;28;8881;-80
2022/01/01 13:06:09;;;;;;;;;1.50;1.50;;;;;;;;5043662;28;9654;-82
2022/01/01 13:08:41;;;;;;;;;3.00;3.00;;;;;;;;5043385;28;8887;-77
2022/01/01 13:11:13;;;;;;;;;3.25;3.25;;;;;;;;5043021;28;9689;-81
2022/01/01 13:13:41;;;;;;;;;5.50;3.75;;;;;;;;5032796;28;9004;-80
2022/01/01 13:16:10;;;;;;;;;4.00;4.00;;;;;;;;5041345;28;8907;-77
2022/01/01 13:18:37;;;;;;;;;3.00;3.00;;;;;;;;5042555;28;8992;-80
2022/01/01 13:21:04;;;;;;;;;5.50;4.25;;;;;;;;5042404;28;8869;-79
2022/01/01 13:23:32;;;;;;;;;5.75;4.75;;;;;;;;5043001;28;8967;-79
2022/01/01 13:25:59;;;;;;;;;3.00;3.00;;;;;;;;5042734;28;8885;-77
2022/01/01 13:28:28;;;;;;;;;4.00;4.00;;;;;;;;5043179;28;8907;-81
2022/01/01 13:30:56;;;;;;;;;4.40;4.40;;;;;;;;5030935;28;8781;-79
2022/01/01 13:33:26;;;;;;;;;4.25;4.25;;;;;;;;5041708;28;8866;-78
2022/01/01 13:36:05;;;;;;;;;4.00;4.00;;;;;;;;5043178;28;8905;-77
2022/01/01 13:38:33;;;;;;;;;5.00;5.00;;;;;;;;5040076;28;9661;-78
2022/01/01 13:41:02;;;;;;;;;3.60;3.60;;;;;;;;5043414;28;8877;-81
2022/01/01 13:43:31;;;;;;;;;3.00;3.00;;;;;;;;5045703;28;8858;-79
2022/01/01 13:46:10;;;;;;;;;4.60;4.40;;;;;;;;5045984;28;8877;-78
2022/01/01 13:48:44;;;;;;;;;3.00;3.00;;;;;;;;5047617;28;8958;-82
2022/01/01 13:51:12;;;;;;;;;4.00;4.00;;;;;;;;5041270;28;8876;-78
2022/01/01 13:53:42;;;;;;;;;3.40;3.40;;;;;;;;5046915;28;9002;-80
2022/01/01 13:56:11;;;;;;;;;6.75;5.75;;;;;;;;5046082;28;8882;-78
2022/01/01 13:58:46;;;;;;;;;3.00;3.00;;;;;;;;5046041;28;8966;-79
2022/01/01 14:01:18;;;;;;;;;2.80;2.80;;;;;;;;5038332;28;8900;-82
2022/01/01 14:03:48;;;;;;;;;4.00;4.00;;;;;;;;5046188;28;8892;-79
2022/01/01 14:06:24;;;;;;;;;4.00;3.75;;;;;;;;5045735;28;8877;-77
2022/01/01 14:08:59;;;;;;;;;4.00;3.00;;;;;;;;5047191;28;9954;-83
2022/01/01 14:11:33;;;;;;;;;4.50;4.25;;;;;;;;5046792;28;8857;-78
2022/01/01 14:14:06;;;;;;;;;3.75;3.75;;;;;;;;5043343;28;8892;-81
2022/01/01 14:16:33;;;;;;;;;6.00;4.67;;;;;;;;5045699;28;8884;-81
2022/01/01 14:19:02;;;;;;;;;2.25;2.25;;;;;;;;5046479;28;9004;-82
2022/01/01 14:21:29;;;;;;;;;4.00;4.00;;;;;;;;5045747;28;8901;-81
2022/01/01 14:24:04;;;;;;;;;5.50;5.50;;;;;;;;5045615;28;8877;-82
2022/01/01 14:26:31;;;;;;;;;9.00;7.50;;;;;;;;5047391;28;8910;-80
2022/01/01 14:28:59;;;;;;;;;6.00;6.00;;;;;;;;5047395;28;8972;-80
2022/01/01 14:31:26;;;;;;;;;6.75;6.75;;;;;;;;5045619;28;8785;-78
2022/01/01 14:33:54;;;;;;;;;8.00;7.00;;;;;;;;5041224;28;8888;-78
2022/01/01 14:36:22;;;;;;;;;6.00;6.00;;;;;;;;5040192;28;8976;-80
2022/01/01 14:38:51;;;;;;;;;3.75;3.75;;;;;;;;5044547;28;8901;-79
2022/01/01 14:41:19;;;;;;;;;5.00;5.00;;;;;;;;5046623;28;8849;-81
2022/01/01 14:43:47;;;;;;;;;7.50;6.00;;;;;;;;5044583;28;9012;-81
2022/01/01 14:46:19;;;;;;;;;6.25;6.25;;;;;;;;5045924;28;9695;-78
2022/01/01 14:48:52;;;;;;;;;6.00;5.00;;;;;;;;5042478;28;8898;-77